This is the latest recevied weather packets stored in our database for station/object DG7AA-13. If no packets are shown the sender has not sent any weather packets the latest 10 day(s).
| Time | Temp. | Humidity | Pressure | Rain* | Wind** | Luminosity | Snow |
|---|---|---|---|---|---|---|---|
| 1777733731 | 27.22° C | 25% | - | 0 mm | - | - | - |
| 1777733124 | 27.22° C | 24% | - | 0 mm | - | - | - |
| 1777732532 | 27.78° C | 24% | - | 0 mm | - | - | - |
| 1777731923 | 27.22° C | 27% | - | 0 mm | - | - | - |
| 1777731325 | 27.22° C | 27% | - | 0 mm | - | - | - |
| 1777730723 | 27.78° C | 25% | - | 0 mm | - | - | - |
| 1777730132 | 27.78° C | 26% | - | 0 mm | - | - | - |
| 1777729542 | 28.33° C | 25% | - | 0 mm | - | - | - |
| 1777728931 | 27.78° C | 27% | - | 0 mm | - | - | - |
| 1777728323 | 27.78° C | 28% | - | 0 mm | - | - | - |
| 1777727734 | 27.22° C | 29% | - | 0 mm | - | - | - |
| 1777727123 | 27.78° C | 29% | - | 0 mm | - | - | - |
| 1777726535 | 26.67° C | 30% | - | 0 mm | - | - | - |
| 1777725924 | 27.22° C | 30% | - | 0 mm | - | - | - |
| 1777725326 | 27.22° C | 30% | - | 0 mm | - | - | - |
| 1777724724 | 26.67° C | 31% | - | 0 mm | - | - | - |
| 1777724123 | 27.22° C | 31% | - | 0 mm | - | - | - |
| 1777723525 | 26.67° C | 31% | - | 0 mm | - | - | - |
| 1777722931 | 27.22° C | 31% | - | 0 mm | - | - | - |
| 1777722324 | 26.67° C | 32% | - | 0 mm | - | - | - |
| 1777721732 | 26.11° C | 33% | - | 0 mm | - | - | - |
| 1777721127 | 25.56° C | 33% | - | 0 mm | - | - | - |
| 1777720531 | 25.56° C | 34% | - | 0 mm | - | - | - |
| 1777719923 | 25.56° C | 35% | - | 0 mm | - | - | - |
| 1777719325 | 25.56° C | 36% | - | 0 mm | - | - | - |
* Rain latest hour (hover to see other rain measurements)
** Current wind speed in m/s (hover to see current wind gust speed)